sensor_id;sensor_type;location;lat;lon;timestamp;pressure;altitude;pressure_sealevel;temperature;humidity
58975;BME280;44751;52.236;5.178;2023-12-29T00:01:09;100449.78;;;16.46;100.00
58975;BME280;44751;52.236;5.178;2023-12-29T00:03:36;100455.63;;;16.12;100.00
58975;BME280;44751;52.236;5.178;2023-12-29T00:06:02;100454.72;;;16.18;100.00
58975;BME280;44751;52.236;5.178;2023-12-29T00:08:28;100437.28;;;15.82;100.00
58975;BME280;44751;52.236;5.178;2023-12-29T00:10:55;100454.81;;;15.86;100.00
58975;BME280;44751;52.236;5.178;2023-12-29T00:13:21;100447.63;;;16.17;100.00
58975;BME280;44751;52.236;5.178;2023-12-29T00:15:52;100449.50;;;15.98;100.00
58975;BME280;44751;52.236;5.178;2023-12-29T00:18:19;100447.28;;;16.44;100.00
58975;BME280;44751;52.236;5.178;2023-12-29T00:20:45;100444.72;;;16.31;100.00
58975;BME280;44751;52.236;5.178;2023-12-29T00:23:11;100437.53;;;15.55;100.00
58975;BME280;44751;52.236;5.178;2023-12-29T00:25:38;100440.16;;;15.87;100.00
58975;BME280;44751;52.236;5.178;2023-12-29T00:28:05;100442.59;;;15.95;100.00
58975;BME280;44751;52.236;5.178;2023-12-29T00:30:31;100428.78;;;16.16;100.00
58975;BME280;44751;52.236;5.178;2023-12-29T00:32:57;100422.78;;;15.88;100.00
58975;BME280;44751;52.236;5.178;2023-12-29T00:35:24;100418.50;;;16.18;100.00
58975;BME280;44751;52.236;5.178;2023-12-29T00:38:01;100415.00;;;15.92;100.00
58975;BME280;44751;52.236;5.178;2023-12-29T00:40:27;100394.94;;;15.67;100.00
58975;BME280;44751;52.236;5.178;2023-12-29T00:42:54;100395.38;;;16.08;100.00
58975;BME280;44751;52.236;5.178;2023-12-29T00:45:20;100392.88;;;15.88;100.00
58975;BME280;44751;52.236;5.178;2023-12-29T00:47:46;100384.94;;;16.24;100.00
58975;BME280;44751;52.236;5.178;2023-12-29T00:50:15;100389.78;;;16.03;100.00
58975;BME280;44751;52.236;5.178;2023-12-29T00:52:42;100400.69;;;16.03;100.00
58975;BME280;44751;52.236;5.178;2023-12-29T00:55:08;100400.19;;;15.87;100.00
58975;BME280;44751;52.236;5.178;2023-12-29T00:57:34;100395.91;;;16.17;100.00
58975;BME280;44751;52.236;5.178;2023-12-29T01:00:01;100390.47;;;15.98;100.00
58975;BME280;44751;52.236;5.178;2023-12-29T01:02:27;100394.13;;;15.85;100.00
58975;BME280;44751;52.236;5.178;2023-12-29T01:04:53;100388.41;;;15.75;100.00
58975;BME280;44751;52.236;5.178;2023-12-29T01:07:20;100399.13;;;15.88;100.00
58975;BME280;44751;52.236;5.178;2023-12-29T01:09:46;100411.84;;;16.32;100.00
58975;BME280;44751;52.236;5.178;2023-12-29T01:12:12;100400.06;;;16.01;100.00
58975;BME280;44751;52.236;5.178;2023-12-29T01:14:40;100405.44;;;16.08;100.00
58975;BME280;44751;52.236;5.178;2023-12-29T01:17:06;100395.75;;;16.31;100.00
58975;BME280;44751;52.236;5.178;2023-12-29T01:19:32;100398.75;;;15.85;100.00
58975;BME280;44751;52.236;5.178;2023-12-29T01:21:58;100387.75;;;15.98;100.00
58975;BME280;44751;52.236;5.178;2023-12-29T01:24:25;100384.50;;;16.08;100.00
58975;BME280;44751;52.236;5.178;2023-12-29T01:26:52;100410.94;;;16.01;100.00
58975;BME280;44751;52.236;5.178;2023-12-29T01:29:18;100371.88;;;16.14;100.00
58975;BME280;44751;52.236;5.178;2023-12-29T01:31:44;100383.41;;;15.91;100.00
58975;BME280;44751;52.236;5.178;2023-12-29T01:34:10;100391.66;;;15.84;100.00
58975;BME280;44751;52.236;5.178;2023-12-29T01:36:36;100389.56;;;16.05;100.00
58975;BME280;44751;52.236;5.178;2023-12-29T01:39:03;100390.06;;;16.32;100.00
58975;BME280;44751;52.236;5.178;2023-12-29T01:41:29;100394.66;;;16.32;100.00
58975;BME280;44751;52.236;5.178;2023-12-29T01:46:25;100396.13;;;16.34;100.00
58975;BME280;44751;52.236;5.178;2023-12-29T01:48:52;100389.78;;;16.03;100.00
58975;BME280;44751;52.236;5.178;2023-12-29T01:51:18;100387.66;;;16.43;100.00
58975;BME280;44751;52.236;5.178;2023-12-29T01:53:46;100370.41;;;16.30;100.00
58975;BME280;44751;52.236;5.178;2023-12-29T01:56:13;100388.63;;;16.30;100.00
58975;BME280;44751;52.236;5.178;2023-12-29T01:58:39;100395.91;;;16.17;100.00
58975;BME280;44751;52.236;5.178;2023-12-29T02:01:06;100379.41;;;16.12;100.00
58975;BME280;44751;52.236;5.178;2023-12-29T02:03:33;100392.38;;;15.98;100.00
58975;BME280;44751;52.236;5.178;2023-12-29T02:06:00;100394.47;;;16.15;100.00
58975;BME280;44751;52.236;5.178;2023-12-29T02:08:27;100395.47;;;16.20;100.00
58975;BME280;44751;52.236;5.178;2023-12-29T02:10:55;100406.13;;;16.03;100.00
58975;BME280;44751;52.236;5.178;2023-12-29T02:13:21;100409.44;;;16.05;100.00
58975;BME280;44751;52.236;5.178;2023-12-29T02:15:49;100399.78;;;15.65;100.00
58975;BME280;44751;52.236;5.178;2023-12-29T02:18:16;100418.34;;;16.12;100.00
58975;BME280;44751;52.236;5.178;2023-12-29T02:20:44;100406.94;;;16.04;100.00
58975;BME280;44751;52.236;5.178;2023-12-29T02:23:10;100418.38;;;15.87;100.00
58975;BME280;44751;52.236;5.178;2023-12-29T02:25:37;100413.44;;;16.03;100.00
58975;BME280;44751;52.236;5.178;2023-12-29T02:28:20;100392.97;;;16.00;100.00
58975;BME280;44751;52.236;5.178;2023-12-29T02:30:56;100401.59;;;15.53;100.00
58975;BME280;44751;52.236;5.178;2023-12-29T02:33:26;100408.03;;;15.77;100.00
58975;BME280;44751;52.236;5.178;2023-12-29T02:35:55;100413.03;;;15.80;100.00
58975;BME280;44751;52.236;5.178;2023-12-29T02:38:22;100417.59;;;16.05;100.00
58975;BME280;44751;52.236;5.178;2023-12-29T02:40:53;100403.69;;;16.13;100.00
58975;BME280;44751;52.236;5.178;2023-12-29T02:43:19;100412.00;;;16.00;100.00
58975;BME280;44751;52.236;5.178;2023-12-29T02:45:45;100413.78;;;15.87;100.00
58975;BME280;44751;52.236;5.178;2023-12-29T02:48:12;100394.41;;;16.21;100.00
58975;BME280;44751;52.236;5.178;2023-12-29T02:50:38;100405.75;;;15.55;100.00
58975;BME280;44751;52.236;5.178;2023-12-29T02:53:05;100394.91;;;15.93;100.00
58975;BME280;44751;52.236;5.178;2023-12-29T02:55:31;100396.69;;;15.80;100.00
58975;BME280;44751;52.236;5.178;2023-12-29T02:57:57;100403.72;;;15.95;100.00
58975;BME280;44751;52.236;5.178;2023-12-29T03:00:24;100407.34;;;16.07;100.00
58975;BME280;44751;52.236;5.178;2023-12-29T03:02:50;100401.47;;;15.85;100.00
58975;BME280;44751;52.236;5.178;2023-12-29T03:05:16;100393.97;;;15.80;100.00
58975;BME280;44751;52.236;5.178;2023-12-29T03:07:43;100406.31;;;16.39;100.00
58975;BME280;44751;52.236;5.178;2023-12-29T03:10:09;100402.97;;;16.06;100.00
58975;BME280;44751;52.236;5.178;2023-12-29T03:12:35;100415.16;;;15.78;100.00
58975;BME280;44751;52.236;5.178;2023-12-29T03:15:02;100415.88;;;16.11;100.00
58975;BME280;44751;52.236;5.178;2023-12-29T03:17:28;100415.88;;;16.30;100.00
58975;BME280;44751;52.236;5.178;2023-12-29T03:19:54;100408.53;;;16.11;100.00
58975;BME280;44751;52.236;5.178;2023-12-29T03:22:21;100407.84;;;15.97;100.00
58975;BME280;44751;52.236;5.178;2023-12-29T03:24:48;100412.91;;;16.12;100.00
58975;BME280;44751;52.236;5.178;2023-12-29T03:27:14;100413.31;;;15.72;100.00
58975;BME280;44751;52.236;5.178;2023-12-29T03:29:40;100405.78;;;15.93;100.00
58975;BME280;44751;52.236;5.178;2023-12-29T03:32:07;100415.09;;;16.22;100.00
58975;BME280;44751;52.236;5.178;2023-12-29T03:34:33;100414.28;;;15.59;100.00
58975;BME280;44751;52.236;5.178;2023-12-29T03:36:59;100423.94;;;16.18;100.00
58975;BME280;44751;52.236;5.178;2023-12-29T03:39:26;100411.84;;;16.13;100.00
58975;BME280;44751;52.236;5.178;2023-12-29T03:41:52;100400.97;;;16.13;100.00
58975;BME280;44751;52.236;5.178;2023-12-29T03:44:18;100397.56;;;15.99;100.00
58975;BME280;44751;52.236;5.178;2023-12-29T03:46:45;100393.56;;;16.21;100.00
58975;BME280;44751;52.236;5.178;2023-12-29T03:49:11;100388.06;;;16.09;100.00
58975;BME280;44751;52.236;5.178;2023-12-29T03:51:38;100385.63;;;16.50;100.00
58975;BME280;44751;52.236;5.178;2023-12-29T03:54:04;100381.53;;;16.29;100.00
58975;BME280;44751;52.236;5.178;2023-12-29T03:56:30;100383.66;;;16.57;100.00
58975;BME280;44751;52.236;5.178;2023-12-29T03:58:57;100385.31;;;16.58;100.00
58975;BME280;44751;52.236;5.178;2023-12-29T04:01:24;100381.50;;;16.47;100.00
58975;BME280;44751;52.236;5.178;2023-12-29T04:03:52;100376.03;;;16.47;100.00
58975;BME280;44751;52.236;5.178;2023-12-29T04:06:18;100381.06;;;16.93;100.00
58975;BME280;44751;52.236;5.178;2023-12-29T04:08:45;100379.28;;;16.56;100.00
58975;BME280;44751;52.236;5.178;2023-12-29T04:11:11;100380.91;;;16.45;100.00
58975;BME280;44751;52.236;5.178;2023-12-29T04:13:38;100380.88;;;16.76;100.00
58975;BME280;44751;52.236;5.178;2023-12-29T04:16:04;100392.13;;;17.10;100.00
58975;BME280;44751;52.236;5.178;2023-12-29T04:18:30;100379.75;;;16.96;100.00
58975;BME280;44751;52.236;5.178;2023-12-29T04:20:57;100380.66;;;16.77;100.00
58975;BME280;44751;52.236;5.178;2023-12-29T04:23:23;100406.25;;;16.27;100.00
58975;BME280;44751;52.236;5.178;2023-12-29T04:25:49;100381.00;;;15.82;100.00
58975;BME280;44751;52.236;5.178;2023-12-29T04:28:16;100395.63;;;15.81;100.00
58975;BME280;44751;52.236;5.178;2023-12-29T04:30:42;100396.03;;;15.85;100.00
58975;BME280;44751;52.236;5.178;2023-12-29T04:33:08;100389.97;;;15.64;100.00
58975;BME280;44751;52.236;5.178;2023-12-29T04:35:34;100385.56;;;15.44;100.00
58975;BME280;44751;52.236;5.178;2023-12-29T04:38:01;100375.53;;;15.64;100.00
58975;BME280;44751;52.236;5.178;2023-12-29T04:40:27;100380.41;;;15.36;100.00
58975;BME280;44751;52.236;5.178;2023-12-29T04:42:53;100385.97;;;15.67;100.00
58975;BME280;44751;52.236;5.178;2023-12-29T04:45:20;100378.69;;;16.05;100.00
58975;BME280;44751;52.236;5.178;2023-12-29T04:47:46;100376.38;;;15.64;100.00
58975;BME280;44751;52.236;5.178;2023-12-29T04:50:12;100366.69;;;15.87;100.00
58975;BME280;44751;52.236;5.178;2023-12-29T04:52:39;100371.25;;;15.56;100.00
58975;BME280;44751;52.236;5.178;2023-12-29T04:55:05;100374.63;;;16.26;100.00
58975;BME280;44751;52.236;5.178;2023-12-29T04:57:31;100365.94;;;15.80;100.00
58975;BME280;44751;52.236;5.178;2023-12-29T04:59:58;100356.03;;;15.85;100.00
58975;BME280;44751;52.236;5.178;2023-12-29T05:02:24;100362.09;;;15.87;100.00
58975;BME280;44751;52.236;5.178;2023-12-29T05:04:50;100356.78;;;16.30;100.00
58975;BME280;44751;52.236;5.178;2023-12-29T05:07:17;100356.03;;;15.48;100.00
58975;BME280;44751;52.236;5.178;2023-12-29T05:09:43;100349.78;;;16.04;100.00
58975;BME280;44751;52.236;5.178;2023-12-29T05:12:09;100352.59;;;15.97;100.00
58975;BME280;44751;52.236;5.178;2023-12-29T05:14:36;100368.25;;;16.20;100.00
58975;BME280;44751;52.236;5.178;2023-12-29T05:17:02;100373.75;;;16.13;100.00
58975;BME280;44751;52.236;5.178;2023-12-29T05:19:28;100371.78;;;15.83;100.00
58975;BME280;44751;52.236;5.178;2023-12-29T05:21:55;100367.75;;;16.23;100.00
58975;BME280;44751;52.236;5.178;2023-12-29T05:24:21;100362.66;;;15.96;100.00
58975;BME280;44751;52.236;5.178;2023-12-29T05:26:47;100377.06;;;15.78;100.00
58975;BME280;44751;52.236;5.178;2023-12-29T05:29:13;100363.16;;;15.86;100.00
58975;BME280;44751;52.236;5.178;2023-12-29T05:31:40;100359.25;;;16.50;100.00
58975;BME280;44751;52.236;5.178;2023-12-29T05:34:06;100355.94;;;15.99;100.00
58975;BME280;44751;52.236;5.178;2023-12-29T05:36:36;100359.97;;;15.90;100.00
58975;BME280;44751;52.236;5.178;2023-12-29T05:39:02;100367.09;;;16.28;100.00
58975;BME280;44751;52.236;5.178;2023-12-29T05:41:29;100360.00;;;16.27;100.00
58975;BME280;44751;52.236;5.178;2023-12-29T05:43:55;100349.44;;;16.00;100.00
58975;BME280;44751;52.236;5.178;2023-12-29T05:46:23;100351.72;;;16.64;100.00
58975;BME280;44751;52.236;5.178;2023-12-29T05:48:49;100361.47;;;16.42;100.00
58975;BME280;44751;52.236;5.178;2023-12-29T05:51:17;100354.78;;;16.68;100.00
58975;BME280;44751;52.236;5.178;2023-12-29T05:53:43;100353.97;;;16.06;100.00
58975;BME280;44751;52.236;5.178;2023-12-29T05:56:13;100354.09;;;16.61;100.00
58975;BME280;44751;52.236;5.178;2023-12-29T05:58:40;100360.22;;;16.25;100.00
58975;BME280;44751;52.236;5.178;2023-12-29T06:01:06;100352.69;;;16.39;100.00
58975;BME280;44751;52.236;5.178;2023-12-29T06:03:33;100354.41;;;16.52;100.00
58975;BME280;44751;52.236;5.178;2023-12-29T06:05:59;100357.84;;;16.29;100.00
58975;BME280;44751;52.236;5.178;2023-12-29T06:08:25;100355.31;;;16.77;100.00
58975;BME280;44751;52.236;5.178;2023-12-29T06:10:52;100356.19;;;16.28;100.00
58975;BME280;44751;52.236;5.178;2023-12-29T06:13:18;100358.78;;;16.23;100.00
58975;BME280;44751;52.236;5.178;2023-12-29T06:15:45;100368.31;;;16.44;100.00
58975;BME280;44751;52.236;5.178;2023-12-29T06:18:11;100366.84;;;16.48;100.00
58975;BME280;44751;52.236;5.178;2023-12-29T06:20:38;100351.50;;;16.35;100.00
58975;BME280;44751;52.236;5.178;2023-12-29T06:23:05;100361.63;;;16.47;100.00
58975;BME280;44751;52.236;5.178;2023-12-29T06:25:31;100355.13;;;16.60;100.00
58975;BME280;44751;52.236;5.178;2023-12-29T06:27:59;100352.88;;;16.26;100.00
58975;BME280;44751;52.236;5.178;2023-12-29T06:30:25;100353.69;;;16.57;100.00
58975;BME280;44751;52.236;5.178;2023-12-29T06:32:52;100350.88;;;16.64;100.00
58975;BME280;44751;52.236;5.178;2023-12-29T06:35:18;100357.53;;;16.37;100.00
58975;BME280;44751;52.236;5.178;2023-12-29T06:37:44;100362.59;;;16.52;100.00
58975;BME280;44751;52.236;5.178;2023-12-29T06:40:11;100360.25;;;16.37;100.00
58975;BME280;44751;52.236;5.178;2023-12-29T06:42:37;100369.06;;;15.83;100.00
58975;BME280;44751;52.236;5.178;2023-12-29T06:45:04;100349.53;;;16.43;100.00
58975;BME280;44751;52.236;5.178;2023-12-29T06:47:33;100358.69;;;16.60;100.00
58975;BME280;44751;52.236;5.178;2023-12-29T06:49:59;100345.53;;;16.26;100.00
58975;BME280;44751;52.236;5.178;2023-12-29T06:52:27;100354.34;;;16.41;100.00
58975;BME280;44751;52.236;5.178;2023-12-29T06:54:55;100353.69;;;16.57;100.00
58975;BME280;44751;52.236;5.178;2023-12-29T06:57:21;100350.22;;;16.19;100.00
58975;BME280;44751;52.236;5.178;2023-12-29T06:59:47;100357.81;;;16.48;100.00
58975;BME280;44751;52.236;5.178;2023-12-29T07:02:14;100369.56;;;16.48;100.00
58975;BME280;44751;52.236;5.178;2023-12-29T07:04:41;100366.19;;;16.77;100.00
58975;BME280;44751;52.236;5.178;2023-12-29T07:07:07;100362.53;;;16.41;100.00
58975;BME280;44751;52.236;5.178;2023-12-29T07:09:34;100372.56;;;16.40;100.00
58975;BME280;44751;52.236;5.178;2023-12-29T07:12:00;100362.13;;;16.06;100.00
58975;BME280;44751;52.236;5.178;2023-12-29T07:14:26;100367.63;;;15.81;100.00
58975;BME280;44751;52.236;5.178;2023-12-29T07:16:53;100358.72;;;16.11;100.00
58975;BME280;44751;52.236;5.178;2023-12-29T07:19:19;100360.22;;;15.88;100.00
58975;BME280;44751;52.236;5.178;2023-12-29T07:21:45;100352.91;;;16.07;100.00
58975;BME280;44751;52.236;5.178;2023-12-29T07:24:12;100350.19;;;16.07;100.00
58975;BME280;44751;52.236;5.178;2023-12-29T07:26:38;100362.28;;;16.73;100.00
58975;BME280;44751;52.236;5.178;2023-12-29T07:29:05;100374.19;;;16.60;100.00
58975;BME280;44751;52.236;5.178;2023-12-29T07:31:31;100372.09;;;16.31;100.00
58975;BME280;44751;52.236;5.178;2023-12-29T07:33:58;100378.69;;;16.05;100.00
58975;BME280;44751;52.236;5.178;2023-12-29T07:36:25;100376.75;;;16.43;100.00
58975;BME280;44751;52.236;5.178;2023-12-29T07:38:51;100374.47;;;16.70;100.00
58975;BME280;44751;52.236;5.178;2023-12-29T07:41:17;100383.19;;;16.60;100.00
58975;BME280;44751;52.236;5.178;2023-12-29T07:43:44;100378.94;;;16.64;100.00
58975;BME280;44751;52.236;5.178;2023-12-29T07:46:10;100371.94;;;16.57;100.00
58975;BME280;44751;52.236;5.178;2023-12-29T07:48:36;100387.88;;;16.41;100.00
58975;BME280;44751;52.236;5.178;2023-12-29T07:51:05;100378.84;;;16.71;100.00
58975;BME280;44751;52.236;5.178;2023-12-29T07:53:31;100368.75;;;16.60;100.00
58975;BME280;44751;52.236;5.178;2023-12-29T07:55:58;100374.91;;;16.24;100.00
58975;BME280;44751;52.236;5.178;2023-12-29T07:58:24;100365.47;;;16.39;100.00
58975;BME280;44751;52.236;5.178;2023-12-29T08:00:50;100372.56;;;16.40;100.00
58975;BME280;44751;52.236;5.178;2023-12-29T08:03:16;100369.88;;;16.71;100.00
58975;BME280;44751;52.236;5.178;2023-12-29T08:05:43;100373.78;;;16.75;100.00
58975;BME280;44751;52.236;5.178;2023-12-29T08:08:11;100368.28;;;16.32;100.00
58975;BME280;44751;52.236;5.178;2023-12-29T08:10:37;100364.47;;;16.52;100.00
58975;BME280;44751;52.236;5.178;2023-12-29T08:13:03;100375.59;;;16.50;100.00
58975;BME280;44751;52.236;5.178;2023-12-29T08:15:30;100377.44;;;17.11;100.00
58975;BME280;44751;52.236;5.178;2023-12-29T08:17:56;100373.53;;;16.46;100.00
58975;BME280;44751;52.236;5.178;2023-12-29T08:20:22;100375.03;;;16.60;100.00
58975;BME280;44751;52.236;5.178;2023-12-29T08:22:49;100379.59;;;16.48;100.00
58975;BME280;44751;52.236;5.178;2023-12-29T08:25:15;100394.34;;;16.40;100.00
58975;BME280;44751;52.236;5.178;2023-12-29T08:27:42;100400.78;;;16.46;100.00
58975;BME280;44751;52.236;5.178;2023-12-29T08:30:08;100391.59;;;16.59;100.00
58975;BME280;44751;52.236;5.178;2023-12-29T08:32:35;100368.69;;;17.33;100.00
58975;BME280;44751;52.236;5.178;2023-12-29T08:35:01;100372.72;;;16.88;100.00
58975;BME280;44751;52.236;5.178;2023-12-29T08:37:28;100387.69;;;16.55;100.00
58975;BME280;44751;52.236;5.178;2023-12-29T08:39:54;100371.94;;;16.57;100.00
58975;BME280;44751;52.236;5.178;2023-12-29T08:42:21;100376.09;;;16.59;100.00
58975;BME280;44751;52.236;5.178;2023-12-29T08:44:47;100383.66;;;16.57;100.00
58975;BME280;44751;52.236;5.178;2023-12-29T08:47:13;100387.13;;;16.34;100.00
58975;BME280;44751;52.236;5.178;2023-12-29T08:49:40;100379.59;;;16.78;100.00
58975;BME280;44751;52.236;5.178;2023-12-29T08:52:07;100388.88;;;16.59;100.00
58975;BME280;44751;52.236;5.178;2023-12-29T08:54:33;100394.44;;;16.33;100.00
58975;BME280;44751;52.236;5.178;2023-12-29T08:57:01;100384.97;;;16.55;100.00
58975;BME280;44751;52.236;5.178;2023-12-29T08:59:27;100379.84;;;16.46;100.00
58975;BME280;44751;52.236;5.178;2023-12-29T09:01:54;100375.72;;;16.25;100.00
58975;BME280;44751;52.236;5.178;2023-12-29T09:04:20;100393.31;;;16.41;100.00
58975;BME280;44751;52.236;5.178;2023-12-29T09:06:47;100397.59;;;16.49;100.00
58975;BME280;44751;52.236;5.178;2023-12-29T09:09:13;100400.69;;;16.03;100.00
58975;BME280;44751;52.236;5.178;2023-12-29T09:11:41;100407.31;;;16.26;100.00
58975;BME280;44751;52.236;5.178;2023-12-29T09:14:08;100402.38;;;16.54;100.00
58975;BME280;44751;52.236;5.178;2023-12-29T09:16:37;100392.84;;;16.75;100.00
58975;BME280;44751;52.236;5.178;2023-12-29T09:19:05;100398.03;;;16.76;100.00
58975;BME280;44751;52.236;5.178;2023-12-29T09:21:33;100407.16;;;16.39;100.00
58975;BME280;44751;52.236;5.178;2023-12-29T09:23:59;100406.09;;;16.22;100.00
58975;BME280;44751;52.236;5.178;2023-12-29T09:26:25;100393.34;;;16.84;100.00
58975;BME280;44751;52.236;5.178;2023-12-29T09:28:52;100400.09;;;16.81;100.00
58975;BME280;44751;52.236;5.178;2023-12-29T09:31:18;100394.94;;;17.03;100.00
58975;BME280;44751;52.236;5.178;2023-12-29T09:33:44;100385.66;;;16.93;100.00
58975;BME280;44751;52.236;5.178;2023-12-29T09:36:10;100395.25;;;16.95;100.00
58975;BME280;44751;52.236;5.178;2023-12-29T09:38:37;100396.91;;;16.84;100.00
58975;BME280;44751;52.236;5.178;2023-12-29T09:41:09;100406.00;;;16.78;100.00
58975;BME280;44751;52.236;5.178;2023-12-29T09:43:36;100391.69;;;16.52;100.00
58975;BME280;44751;52.236;5.178;2023-12-29T09:46:04;100399.97;;;16.88;100.00
58975;BME280;44751;52.236;5.178;2023-12-29T09:48:31;100413.16;;;16.60;100.00
58975;BME280;44751;52.236;5.178;2023-12-29T09:50:57;100421.78;;;17.31;100.00
58975;BME280;44751;52.236;5.178;2023-12-29T09:53:24;100409.72;;;17.50;100.00
58975;BME280;44751;52.236;5.178;2023-12-29T09:55:51;100406.84;;;16.78;100.00
58975;BME280;44751;52.236;5.178;2023-12-29T09:58:19;100412.31;;;17.21;100.00
58975;BME280;44751;52.236;5.178;2023-12-29T10:00:49;100412.69;;;16.94;100.00
58975;BME280;44751;52.236;5.178;2023-12-29T10:03:15;100410.53;;;17.39;100.00
58975;BME280;44751;52.236;5.178;2023-12-29T10:05:42;100429.00;;;17.37;100.00
58975;BME280;44751;52.236;5.178;2023-12-29T10:08:08;100428.41;;;17.23;100.00
58975;BME280;44751;52.236;5.178;2023-12-29T10:10:36;100423.28;;;17.14;100.00
58975;BME280;44751;52.236;5.178;2023-12-29T10:13:04;100433.38;;;17.14;100.00
58975;BME280;44751;52.236;5.178;2023-12-29T10:21:29;100431.03;;;17.29;100.00
58975;BME280;44751;52.236;5.178;2023-12-29T10:23:30;100432.28;;;17.03;100.00
58975;BME280;44751;52.236;5.178;2023-12-29T10:25:58;100434.25;;;17.38;100.00
58975;BME280;44751;52.236;5.178;2023-12-29T10:28:24;100420.78;;;17.13;100.00
58975;BME280;44751;52.236;5.178;2023-12-29T10:30:51;100434.34;;;17.20;100.00
58975;BME280;44751;52.236;5.178;2023-12-29T10:33:20;100418.09;;;17.37;100.00
58975;BME280;44751;52.236;5.178;2023-12-29T10:36:07;100421.09;;;17.04;100.00
58975;BME280;44751;52.236;5.178;2023-12-29T10:38:34;100435.78;;;16.61;100.00
58975;BME280;44751;52.236;5.178;2023-12-29T10:41:10;100438.22;;;17.12;100.00
58975;BME280;44751;52.236;5.178;2023-12-29T10:43:37;100426.81;;;16.72;100.00
58975;BME280;44751;52.236;5.178;2023-12-29T10:46:06;100445.31;;;17.13;100.00
58975;BME280;44751;52.236;5.178;2023-12-29T10:48:33;100462.66;;;16.88;100.00
58975;BME280;44751;52.236;5.178;2023-12-29T10:51:00;100468.09;;;16.88;100.00
58975;BME280;44751;52.236;5.178;2023-12-29T10:53:28;100462.31;;;17.27;100.00
58975;BME280;44751;52.236;5.178;2023-12-29T10:55:54;100470.03;;;16.69;100.00
58975;BME280;44751;52.236;5.178;2023-12-29T10:58:21;100466.00;;;17.33;100.00
58975;BME280;44751;52.236;5.178;2023-12-29T11:00:47;100460.56;;;16.71;100.00
58975;BME280;44751;52.236;5.178;2023-12-29T11:03:16;100466.41;;;16.75;100.00
58975;BME280;44751;52.236;5.178;2023-12-29T11:05:43;100468.47;;;17.22;100.00
58975;BME280;44751;52.236;5.178;2023-12-29T11:08:20;100474.78;;;17.35;100.00
58975;BME280;44751;52.236;5.178;2023-12-29T11:10:49;100483.22;;;17.45;100.00
58975;BME280;44751;52.236;5.178;2023-12-29T11:13:16;100475.94;;;16.65;100.00
58975;BME280;44751;52.236;5.178;2023-12-29T11:15:43;100474.94;;;16.78;100.00
58975;BME280;44751;52.236;5.178;2023-12-29T11:18:13;100477.81;;;17.14;100.00
58975;BME280;44751;52.236;5.178;2023-12-29T11:20:40;100494.69;;;17.04;100.00
58975;BME280;44751;52.236;5.178;2023-12-29T11:23:07;100481.50;;;17.20;100.00
58975;BME280;44751;52.236;5.178;2023-12-29T11:25:36;100478.66;;;17.27;100.00
58975;BME280;44751;52.236;5.178;2023-12-29T11:28:02;100473.66;;;17.78;100.00
58975;BME280;44751;52.236;5.178;2023-12-29T11:30:29;100478.88;;;17.13;100.00
58975;BME280;44751;52.236;5.178;2023-12-29T11:35:23;100487.84;;;17.45;100.00
58975;BME280;44751;52.236;5.178;2023-12-29T11:40:41;100478.75;;;17.87;100.00
58975;BME280;44751;52.236;5.178;2023-12-29T11:43:12;100481.34;;;18.05;100.00
58975;BME280;44751;52.236;5.178;2023-12-29T11:45:41;100489.50;;;17.46;100.00
58975;BME280;44751;52.236;5.178;2023-12-29T11:48:07;100484.50;;;17.31;100.00
58975;BME280;44751;52.236;5.178;2023-12-29T11:50:36;100488.84;;;17.74;100.00
58975;BME280;44751;52.236;5.178;2023-12-29T11:53:03;100488.72;;;18.17;100.00
58975;BME280;44751;52.236;5.178;2023-12-29T11:55:30;100494.88;;;17.64;100.00
58975;BME280;44751;52.236;5.178;2023-12-29T11:57:57;100480.75;;;17.55;100.00
58975;BME280;44751;52.236;5.178;2023-12-29T12:00:40;100483.25;;;17.57;100.00
58975;BME280;44751;52.236;5.178;2023-12-29T12:03:13;100497.66;;;18.12;100.00
58975;BME280;44751;52.236;5.178;2023-12-29T12:05:49;100479.50;;;18.18;100.00
58975;BME280;44751;52.236;5.178;2023-12-29T12:08:31;100493.47;;;18.22;100.00
58975;BME280;44751;52.236;5.178;2023-12-29T12:13:45;100482.56;;;18.22;100.00
58975;BME280;44751;52.236;5.178;2023-12-29T12:18:57;100476.63;;;18.01;100.00
58975;BME280;44751;52.236;5.178;2023-12-29T12:21:23;100473.44;;;17.80;100.00
58975;BME280;44751;52.236;5.178;2023-12-29T12:23:50;100468.41;;;17.65;100.00
58975;BME280;44751;52.236;5.178;2023-12-29T12:26:18;100467.56;;;17.40;100.00
58975;BME280;44751;52.236;5.178;2023-12-29T12:28:46;100462.00;;;18.07;100.00
58975;BME280;44751;52.236;5.178;2023-12-29T12:31:12;100469.25;;;17.53;100.00
58975;BME280;44751;52.236;5.178;2023-12-29T12:33:39;100457.69;;;17.15;100.00
58975;BME280;44751;52.236;5.178;2023-12-29T12:36:05;100462.69;;;17.42;100.00
58975;BME280;44751;52.236;5.178;2023-12-29T12:38:34;100458.56;;;17.88;100.00
58975;BME280;44751;52.236;5.178;2023-12-29T12:41:09;100460.47;;;17.75;100.00
58975;BME280;44751;52.236;5.178;2023-12-29T12:43:37;100465.91;;;17.39;100.00
58975;BME280;44751;52.236;5.178;2023-12-29T12:46:09;100471.72;;;17.31;100.00
58975;BME280;44751;52.236;5.178;2023-12-29T12:48:36;100453.22;;;17.69;100.00
58975;BME280;44751;52.236;5.178;2023-12-29T12:51:06;100444.94;;;17.64;100.00
58975;BME280;44751;52.236;5.178;2023-12-29T12:53:33;100451.28;;;17.10;100.00
58975;BME280;44751;52.236;5.178;2023-12-29T12:56:02;100450.13;;;17.41;100.00
58975;BME280;44751;52.236;5.178;2023-12-29T12:58:31;100447.19;;;17.55;100.00